createdAt,value
2019-02-15T00:00:27.227Z,1.30
2019-02-15T00:02:55.502Z,1.50
2019-02-15T00:05:23.812Z,1.60
2019-02-15T00:07:52.088Z,1.60
2019-02-15T00:10:20.408Z,1.60
2019-02-15T00:12:48.680Z,1.90
2019-02-15T00:15:16.956Z,1.90
2019-02-15T00:17:52.458Z,1.80
2019-02-15T00:20:22.409Z,1.90
2019-02-15T00:22:50.755Z,1.70
2019-02-15T00:25:19.040Z,1.80
2019-02-15T00:27:47.427Z,1.90
2019-02-15T00:30:15.790Z,1.60
2019-02-15T00:32:44.075Z,1.30
2019-02-15T00:35:12.385Z,1.10
2019-02-15T00:37:40.700Z,1.00
2019-02-15T00:40:08.991Z,1.00
2019-02-15T00:42:37.422Z,1.00
2019-02-15T00:45:06.583Z,0.90
2019-02-15T00:47:45.460Z,1.00
2019-02-15T00:50:30.606Z,1.10
2019-02-15T00:53:16.787Z,1.20
2019-02-15T00:56:02.005Z,1.40
2019-02-15T00:58:35.067Z,1.50
2019-02-15T01:01:07.720Z,1.60
2019-02-15T01:03:40.396Z,1.50
2019-02-15T01:06:18.887Z,1.40
2019-02-15T01:08:57.939Z,1.40
2019-02-15T01:11:27.856Z,1.20
2019-02-15T01:13:56.162Z,1.00
2019-02-15T01:16:24.449Z,0.80
2019-02-15T01:18:52.764Z,0.60
2019-02-15T01:21:21.064Z,0.50
2019-02-15T01:23:49.451Z,0.50
2019-02-15T01:26:19.368Z,0.50
2019-02-15T01:28:49.315Z,0.50
2019-02-15T01:31:35.902Z,0.40
2019-02-15T01:34:20.873Z,0.60
2019-02-15T01:36:53.468Z,0.70
2019-02-15T01:39:40.095Z,0.60
2019-02-15T01:42:13.043Z,0.60
2019-02-15T01:44:45.708Z,0.50
2019-02-15T01:47:15.628Z,0.50
2019-02-15T01:49:44.020Z,0.60
2019-02-15T01:52:12.297Z,0.60
2019-02-15T01:54:40.612Z,0.60
2019-02-15T01:57:08.887Z,0.60
2019-02-15T01:59:37.196Z,0.50
2019-02-15T02:02:05.544Z,0.50
2019-02-15T02:04:33.919Z,0.40
2019-02-15T02:07:02.940Z,0.40
2019-02-15T02:09:31.276Z,0.50
2019-02-15T02:11:59.546Z,0.60
2019-02-15T02:14:27.854Z,0.60
2019-02-15T02:16:56.160Z,0.50
2019-02-15T02:19:24.426Z,0.20
2019-02-15T02:21:52.699Z,0.10
2019-02-15T02:24:20.998Z,0.10
2019-02-15T02:26:49.393Z,0.00
2019-02-15T02:29:17.740Z,0.10
2019-02-15T02:31:46.057Z,0.00
2019-02-15T02:34:14.335Z,0.10
2019-02-15T02:36:50.029Z,0.10
2019-02-15T02:39:18.375Z,0.30
2019-02-15T02:41:46.663Z,0.20
2019-02-15T02:44:14.975Z,0.20
2019-02-15T02:46:43.249Z,0.30
2019-02-15T02:49:11.528Z,0.50
2019-02-15T02:51:39.912Z,0.60
2019-02-15T02:54:08.220Z,0.70
2019-02-15T02:56:36.578Z,0.60
2019-02-15T02:59:04.956Z,0.50
2019-02-15T03:01:33.238Z,0.40
2019-02-15T03:04:01.625Z,0.30
2019-02-15T03:06:29.899Z,0.10
2019-02-15T03:08:58.215Z,0.10
2019-02-15T03:11:26.489Z,0.20
2019-02-15T03:13:55.739Z,0.20
2019-02-15T03:16:24.155Z,0.20
2019-02-15T03:18:52.468Z,0.30
2019-02-15T03:21:20.793Z,0.30
2019-02-15T03:23:49.177Z,0.30
2019-02-15T03:26:17.531Z,0.40
2019-02-15T03:28:45.840Z,0.40
2019-02-15T03:31:14.258Z,0.50
2019-02-15T03:33:42.594Z,0.60
2019-02-15T03:36:12.739Z,0.50
2019-02-15T03:38:48.543Z,0.50
2019-02-15T03:41:27.176Z,0.40
2019-02-15T03:43:55.775Z,0.30
2019-02-15T03:46:24.230Z,0.40
2019-02-15T03:48:52.581Z,0.60
2019-02-15T03:51:20.956Z,0.60
2019-02-15T03:53:49.270Z,0.60
2019-02-15T03:56:17.615Z,0.50
2019-02-15T03:58:45.923Z,0.50
2019-02-15T04:01:14.236Z,0.50
2019-02-15T04:03:42.555Z,0.50
2019-02-15T04:06:10.836Z,0.40
2019-02-15T04:08:39.111Z,0.30
2019-02-15T04:11:07.435Z,0.40
2019-02-15T04:13:35.780Z,0.50
2019-02-15T04:16:04.096Z,0.50
2019-02-15T04:18:32.480Z,0.60
2019-02-15T04:21:00.756Z,0.50
2019-02-15T04:23:29.068Z,0.40
2019-02-15T04:25:57.433Z,0.40
2019-02-15T04:28:26.184Z,0.40
2019-02-15T04:30:54.474Z,0.30
2019-02-15T04:33:22.827Z,0.50
2019-02-15T04:35:51.136Z,0.50
2019-02-15T04:38:19.421Z,0.40
2019-02-15T04:40:47.771Z,0.30
2019-02-15T04:43:16.088Z,0.40
2019-02-15T04:45:44.396Z,0.40
2019-02-15T04:48:12.681Z,0.40
2019-02-15T04:50:41.055Z,0.40
2019-02-15T04:53:09.372Z,0.50
2019-02-15T04:55:37.687Z,0.40
2019-02-15T04:58:06.039Z,0.40
2019-02-15T05:00:35.127Z,0.40
2019-02-15T05:03:03.463Z,0.40
2019-02-15T05:05:31.739Z,0.40
2019-02-15T05:08:00.048Z,0.40
2019-02-15T05:10:28.351Z,0.50
2019-02-15T05:12:56.623Z,0.60
2019-02-15T05:15:24.938Z,0.60
2019-02-15T05:17:53.324Z,0.50
2019-02-15T05:20:21.595Z,0.40
2019-02-15T05:22:50.036Z,0.40
2019-02-15T05:25:18.401Z,0.30
2019-02-15T05:27:46.715Z,0.20
2019-02-15T05:30:15.075Z,0.30
2019-02-15T05:32:43.449Z,0.30
2019-02-15T05:35:11.862Z,0.30
2019-02-15T05:37:40.302Z,0.40
2019-02-15T05:40:08.583Z,0.30
2019-02-15T05:42:36.973Z,0.30
2019-02-15T05:45:06.046Z,0.20
2019-02-15T05:47:34.422Z,0.20
2019-02-15T05:50:02.814Z,0.10
2019-02-15T05:52:31.195Z,0.30
2019-02-15T05:54:59.475Z,0.30
2019-02-15T05:57:27.784Z,0.40
2019-02-15T05:59:56.062Z,0.40
2019-02-15T06:02:24.444Z,0.40
2019-02-15T06:04:52.719Z,0.20
2019-02-15T06:07:21.038Z,0.10
2019-02-15T06:09:49.413Z,0.20
2019-02-15T06:12:17.721Z,0.20
2019-02-15T06:14:46.031Z,0.00
2019-02-15T06:17:14.383Z,0.10
2019-02-15T06:19:42.697Z,0.20
2019-02-15T06:22:11.083Z,0.20
2019-02-15T06:24:39.392Z,0.20
2019-02-15T06:27:07.692Z,0.20
2019-02-15T06:29:35.972Z,0.20
2019-02-15T06:32:04.351Z,0.10
2019-02-15T06:34:32.684Z,0.10
2019-02-15T06:37:01.024Z,0.00
2019-02-15T06:39:29.374Z,0.10
2019-02-15T06:41:57.680Z,0.10
2019-02-15T06:44:25.991Z,0.10
2019-02-15T06:46:54.277Z,0.10
2019-02-15T06:49:23.136Z,0.20
2019-02-15T06:51:51.449Z,0.20
2019-02-15T06:54:19.768Z,0.20
2019-02-15T06:56:48.122Z,0.30
2019-02-15T06:59:23.953Z,0.40
2019-02-15T07:01:56.608Z,0.50
2019-02-15T07:04:29.536Z,0.60
2019-02-15T07:06:57.848Z,0.70
2019-02-15T07:09:26.161Z,0.90
2019-02-15T07:11:54.512Z,1.10
2019-02-15T07:14:22.841Z,1.20
2019-02-15T07:16:51.126Z,1.50
2019-02-15T07:19:19.484Z,1.70
2019-02-15T07:21:48.035Z,2.00
2019-02-15T07:24:16.455Z,2.30
2019-02-15T07:26:44.731Z,2.40
2019-02-15T07:29:13.046Z,2.50
2019-02-15T07:31:41.431Z,2.70
2019-02-15T07:34:09.788Z,2.80
2019-02-15T07:36:38.099Z,2.80
2019-02-15T07:39:06.375Z,3.00
2019-02-15T07:41:34.657Z,3.10
2019-02-15T07:44:03.040Z,3.10
2019-02-15T07:46:31.428Z,3.10
2019-02-15T07:48:59.783Z,3.10
2019-02-15T07:51:28.093Z,3.20
2019-02-15T07:53:56.376Z,3.40
2019-02-15T07:56:24.680Z,3.50
2019-02-15T07:58:52.985Z,3.40
2019-02-15T08:01:21.313Z,3.60
2019-02-15T08:03:49.668Z,3.80
2019-02-15T08:06:17.942Z,3.90
2019-02-15T08:08:46.324Z,4.10
2019-02-15T08:11:14.779Z,4.00
2019-02-15T08:13:43.160Z,4.10
2019-02-15T08:16:11.469Z,4.10
2019-02-15T08:18:39.744Z,3.90
2019-02-15T08:21:08.071Z,3.60
2019-02-15T08:23:36.424Z,3.80
2019-02-15T08:26:04.800Z,4.20
2019-02-15T08:28:33.109Z,4.50
2019-02-15T08:31:01.403Z,4.70
2019-02-15T08:33:29.763Z,4.40
2019-02-15T08:35:58.044Z,4.40
2019-02-15T08:38:27.556Z,4.70
2019-02-15T08:40:56.022Z,4.70
2019-02-15T08:43:24.403Z,4.70
2019-02-15T08:46:00.581Z,4.80
2019-02-15T08:48:22.784Z,4.80
2019-02-15T08:50:51.090Z,5.00
2019-02-15T08:53:19.402Z,5.30
2019-02-15T08:55:47.800Z,5.40
2019-02-15T08:58:16.163Z,5.60
2019-02-15T09:00:44.471Z,5.70
2019-02-15T09:03:12.753Z,5.80
2019-02-15T09:05:41.038Z,5.80
2019-02-15T09:08:09.448Z,5.80
2019-02-15T09:10:37.795Z,5.80
2019-02-15T09:13:06.110Z,6.00
2019-02-15T09:15:34.395Z,6.10
2019-02-15T09:18:02.708Z,6.10
2019-02-15T09:20:31.094Z,6.10
2019-02-15T09:22:59.407Z,6.10
2019-02-15T09:25:27.690Z,6.20
2019-02-15T09:28:15.552Z,6.20
2019-02-15T09:30:45.623Z,6.20
2019-02-15T09:33:13.896Z,6.30
2019-02-15T09:35:42.175Z,6.40
2019-02-15T09:38:10.578Z,6.30
2019-02-15T09:40:38.916Z,6.50
2019-02-15T09:43:07.233Z,6.60
2019-02-15T09:45:35.504Z,6.50
2019-02-15T09:48:03.815Z,6.50
2019-02-15T09:50:32.097Z,6.50
2019-02-15T09:53:00.408Z,6.60
2019-02-15T09:55:28.719Z,6.70
2019-02-15T09:57:57.068Z,6.60
2019-02-15T10:00:25.383Z,6.60
2019-02-15T10:02:53.691Z,6.90
2019-02-15T10:05:21.972Z,7.40
2019-02-15T10:07:50.347Z,7.50
2019-02-15T10:10:18.636Z,7.90
2019-02-15T10:12:47.026Z,8.30
2019-02-15T10:15:15.377Z,8.70
2019-02-15T10:17:43.728Z,9.00
2019-02-15T10:20:12.247Z,9.30
2019-02-15T10:22:40.556Z,9.30
2019-02-15T10:25:09.776Z,9.10
2019-02-15T10:27:38.165Z,9.00
2019-02-15T10:30:11.665Z,9.10
2019-02-15T10:32:40.019Z,9.10
2019-02-15T10:35:10.523Z,9.30
2019-02-15T10:37:38.916Z,9.20
2019-02-15T10:40:09.148Z,9.20
2019-02-15T10:42:37.536Z,9.00
2019-02-15T10:45:14.384Z,9.40
2019-02-15T10:47:42.725Z,9.20
2019-02-15T10:50:11.548Z,9.00
2019-02-15T10:52:39.915Z,9.20
2019-02-15T10:55:08.963Z,9.40
2019-02-15T10:57:37.241Z,9.60
2019-02-15T11:00:13.360Z,10.00
2019-02-15T11:02:41.669Z,10.40
2019-02-15T11:05:09.944Z,10.60
2019-02-15T11:07:38.265Z,10.70
2019-02-15T11:10:08.833Z,10.70
2019-02-15T11:12:37.183Z,10.50
2019-02-15T11:15:14.267Z,10.70
2019-02-15T11:17:43.097Z,11.00
2019-02-15T11:20:18.902Z,11.30
2019-02-15T11:22:47.808Z,11.60
2019-02-15T11:25:16.267Z,11.50
2019-02-15T11:27:44.600Z,11.80
2019-02-15T11:30:16.628Z,12.10
2019-02-15T11:32:44.902Z,12.10
2019-02-15T11:35:13.920Z,12.10
2019-02-15T11:37:42.237Z,12.30
2019-02-15T11:40:15.121Z,12.60
2019-02-15T11:42:43.519Z,12.60
2019-02-15T11:45:15.508Z,12.80
2019-02-15T11:47:43.907Z,12.80
2019-02-15T11:50:13.113Z,13.20
2019-02-15T11:52:41.468Z,13.50
2019-02-15T11:55:10.779Z,13.30
2019-02-15T11:57:39.129Z,13.60
2019-02-15T12:00:15.234Z,12.90
2019-02-15T12:02:43.628Z,13.30
2019-02-15T12:05:12.020Z,14.20
2019-02-15T12:07:40.399Z,14.10
2019-02-15T12:10:11.775Z,13.40
2019-02-15T12:12:40.099Z,13.20
2019-02-15T12:15:09.714Z,13.10
2019-02-15T12:17:38.019Z,13.20
2019-02-15T12:20:09.536Z,13.60
2019-02-15T12:22:37.927Z,13.80
2019-02-15T12:25:07.052Z,14.80
2019-02-15T12:27:35.331Z,15.40
2019-02-15T12:30:05.589Z,14.70
2019-02-15T12:32:33.895Z,14.80
2019-02-15T12:35:02.717Z,15.30
2019-02-15T12:37:30.999Z,15.70
2019-02-15T12:39:59.376Z,16.10
2019-02-15T12:42:27.765Z,15.60
2019-02-15T12:44:56.094Z,15.60
2019-02-15T12:47:24.489Z,15.70
2019-02-15T12:49:52.840Z,15.10
2019-02-15T12:52:21.148Z,15.20
2019-02-15T12:54:49.437Z,15.50
2019-02-15T12:57:17.815Z,16.00
2019-02-15T12:59:46.208Z,16.30
2019-02-15T13:02:14.492Z,16.60
2019-02-15T13:04:42.888Z,16.80
2019-02-15T13:07:11.169Z,17.00
2019-02-15T13:09:39.548Z,17.00
2019-02-15T13:12:07.837Z,17.00
2019-02-15T13:14:36.160Z,16.90
2019-02-15T13:17:05.312Z,16.20
2019-02-15T13:19:33.642Z,15.30
2019-02-15T13:22:01.924Z,15.40
2019-02-15T13:24:30.212Z,15.40
2019-02-15T13:26:58.601Z,15.80
2019-02-15T13:29:26.984Z,16.20
2019-02-15T13:31:55.321Z,15.60
2019-02-15T13:34:23.605Z,15.70
2019-02-15T13:36:51.919Z,15.50
2019-02-15T13:39:20.217Z,15.20
2019-02-15T13:41:48.535Z,15.20
2019-02-15T13:44:17.915Z,15.30
2019-02-15T13:46:46.330Z,15.70
2019-02-15T13:49:14.723Z,15.40
2019-02-15T13:51:43.940Z,15.60
2019-02-15T13:54:12.362Z,15.50
2019-02-15T13:56:40.751Z,15.40
2019-02-15T13:59:09.097Z,15.50
2019-02-15T14:01:37.382Z,15.50
2019-02-15T14:04:05.778Z,15.50
2019-02-15T14:06:34.071Z,15.50
2019-02-15T14:09:02.442Z,15.80
2019-02-15T14:11:30.804Z,15.80
2019-02-15T14:13:59.119Z,16.00
2019-02-15T14:16:27.435Z,15.80
2019-02-15T14:18:55.819Z,15.70
2019-02-15T14:21:24.202Z,15.70
2019-02-15T14:23:52.551Z,15.60
2019-02-15T14:26:20.872Z,15.60
2019-02-15T14:28:49.258Z,15.50
2019-02-15T14:31:17.554Z,15.50
2019-02-15T14:33:45.871Z,15.50
2019-02-15T14:36:14.194Z,15.50
2019-02-15T14:38:42.581Z,15.60
2019-02-15T14:41:10.904Z,15.70
2019-02-15T14:43:39.260Z,15.60
2019-02-15T14:46:07.643Z,15.70
2019-02-15T14:48:36.021Z,15.60
2019-02-15T14:51:04.314Z,15.50
2019-02-15T14:53:32.640Z,15.60
2019-02-15T14:56:01.995Z,15.40
2019-02-15T14:58:30.337Z,15.40
2019-02-15T15:00:58.723Z,15.40
2019-02-15T15:03:27.040Z,15.20
2019-02-15T15:05:55.328Z,15.20
2019-02-15T15:08:23.648Z,15.20
2019-02-15T15:10:51.999Z,15.20
2019-02-15T15:13:20.317Z,15.10
2019-02-15T15:15:48.676Z,15.20
2019-02-15T15:18:16.991Z,15.10
2019-02-15T15:20:45.279Z,15.00
2019-02-15T15:23:13.667Z,15.00
2019-02-15T15:25:41.939Z,14.90
2019-02-15T15:28:10.265Z,14.90
2019-02-15T15:30:38.632Z,14.90
2019-02-15T15:33:07.039Z,14.90
2019-02-15T15:35:35.401Z,14.90
2019-02-15T15:38:03.788Z,14.80
2019-02-15T15:40:32.117Z,14.80
2019-02-15T15:43:00.403Z,14.70
2019-02-15T15:45:28.754Z,14.60
2019-02-15T15:47:57.063Z,14.60
2019-02-15T15:50:25.386Z,14.50
2019-02-15T15:52:53.826Z,14.50
2019-02-15T15:55:22.508Z,14.40
2019-02-15T15:57:50.904Z,14.30
2019-02-15T16:00:19.374Z,14.30
2019-02-15T16:02:48.249Z,14.20
2019-02-15T16:05:16.584Z,14.20
2019-02-15T16:07:44.972Z,14.20
2019-02-15T16:10:14.333Z,14.30
2019-02-15T16:12:42.768Z,14.20
2019-02-15T16:15:12.370Z,13.90
2019-02-15T16:17:40.764Z,13.70
2019-02-15T16:20:12.937Z,13.60
2019-02-15T16:22:41.258Z,13.40
2019-02-15T16:25:10.261Z,13.30
2019-02-15T16:27:38.559Z,13.20
2019-02-15T16:30:12.215Z,13.10
2019-02-15T16:32:40.547Z,13.00
2019-02-15T16:35:09.168Z,12.90
2019-02-15T16:37:37.529Z,12.80
2019-02-15T16:40:14.021Z,12.70
2019-02-15T16:42:42.394Z,12.60
2019-02-15T16:45:17.160Z,12.50
2019-02-15T16:47:45.556Z,12.40
2019-02-15T16:50:13.920Z,12.30
2019-02-15T16:52:42.318Z,12.30
2019-02-15T16:55:13.166Z,12.30
2019-02-15T16:57:40.731Z,12.30
2019-02-15T17:00:13.350Z,12.20
2019-02-15T17:02:41.723Z,12.20
2019-02-15T17:05:10.187Z,12.10
2019-02-15T17:07:38.476Z,12.10
2019-02-15T17:10:08.914Z,12.00
2019-02-15T17:12:37.307Z,11.90
2019-02-15T17:15:08.765Z,11.90
2019-02-15T17:17:37.152Z,11.80
2019-02-15T17:20:07.657Z,11.60
2019-02-15T17:22:36.177Z,11.60
2019-02-15T17:25:06.856Z,11.60
2019-02-15T17:27:35.210Z,11.70
2019-02-15T17:30:05.507Z,11.60
2019-02-15T17:32:33.832Z,11.50
2019-02-15T17:35:02.120Z,11.60
2019-02-15T17:37:30.513Z,11.60
2019-02-15T17:39:58.864Z,11.40
2019-02-15T17:42:27.193Z,11.40
2019-02-15T17:44:55.793Z,11.40
2019-02-15T17:47:24.183Z,11.40
2019-02-15T17:49:52.572Z,11.40
2019-02-15T17:52:20.961Z,11.30
2019-02-15T17:54:49.652Z,11.20
2019-02-15T17:57:18.045Z,11.10
2019-02-15T17:59:46.440Z,11.10
2019-02-15T18:02:14.839Z,11.00
2019-02-15T18:04:43.306Z,10.90
2019-02-15T18:07:11.583Z,10.90
2019-02-15T18:09:39.961Z,10.80
2019-02-15T18:12:08.363Z,10.90
2019-02-15T18:14:36.671Z,10.80
2019-02-15T18:17:04.987Z,10.80
2019-02-15T18:19:33.266Z,10.70
2019-02-15T18:22:03.018Z,10.60
2019-02-15T18:24:31.591Z,10.40
2019-02-15T18:26:59.914Z,10.50
2019-02-15T18:29:28.304Z,10.40
2019-02-15T18:31:56.586Z,10.40
2019-02-15T18:34:24.950Z,10.30
2019-02-15T18:36:53.370Z,10.10
2019-02-15T18:39:21.782Z,10.10
2019-02-15T18:41:50.217Z,10.20
2019-02-15T18:44:18.608Z,10.10
2019-02-15T18:46:46.893Z,10.00
2019-02-15T18:49:19.460Z,10.00
2019-02-15T18:51:45.326Z,10.00
2019-02-15T18:54:13.675Z,10.00
2019-02-15T18:56:42.004Z,10.00
2019-02-15T18:59:10.376Z,9.90
2019-02-15T19:01:38.723Z,10.00
2019-02-15T19:04:07.064Z,9.90
2019-02-15T19:06:35.372Z,9.80
2019-02-15T19:09:04.897Z,9.80
2019-02-15T19:11:33.265Z,9.90
2019-02-15T19:14:01.679Z,9.80
2019-02-15T19:16:30.048Z,9.80
2019-02-15T19:18:58.620Z,9.70
2019-02-15T19:21:27.006Z,9.60
2019-02-15T19:23:55.381Z,9.70
2019-02-15T19:26:23.700Z,9.70
2019-02-15T19:28:52.098Z,9.80
2019-02-15T19:31:20.494Z,9.80
2019-02-15T19:33:48.880Z,9.80
2019-02-15T19:36:17.306Z,9.80
2019-02-15T19:38:45.615Z,9.80
2019-02-15T19:41:14.256Z,9.70
2019-02-15T19:43:42.627Z,9.70
2019-02-15T19:46:11.026Z,9.50
2019-02-15T19:48:39.458Z,9.60
2019-02-15T19:51:07.816Z,9.50
2019-02-15T19:53:36.095Z,9.50
2019-02-15T19:56:04.570Z,9.40
2019-02-15T19:58:32.985Z,9.40
2019-02-15T20:01:01.476Z,9.30
2019-02-15T20:03:29.861Z,9.30
2019-02-15T20:05:58.189Z,9.20
2019-02-15T20:08:27.580Z,9.30
2019-02-15T20:10:55.997Z,9.20
2019-02-15T20:13:24.303Z,9.20
2019-02-15T20:15:52.948Z,9.20
2019-02-15T20:18:21.242Z,9.20
2019-02-15T20:20:49.668Z,9.20
2019-02-15T20:23:17.997Z,9.20
2019-02-15T20:25:46.310Z,9.10
2019-02-15T20:28:14.683Z,9.10
2019-02-15T20:30:43.132Z,8.90
2019-02-15T20:33:11.421Z,8.90
2019-02-15T20:35:39.799Z,8.80
2019-02-15T20:38:08.176Z,8.90
2019-02-15T20:40:36.563Z,8.90
2019-02-15T20:43:04.921Z,8.90
2019-02-15T20:45:33.325Z,8.90
2019-02-15T20:48:01.707Z,8.80
2019-02-15T20:50:30.050Z,8.70
2019-02-15T20:52:58.361Z,8.70
2019-02-15T20:55:26.674Z,8.80
2019-02-15T20:57:55.043Z,8.70
2019-02-15T21:00:32.021Z,8.50
2019-02-15T21:03:00.417Z,8.30
2019-02-15T21:05:29.078Z,8.20
2019-02-15T21:07:57.440Z,8.00
2019-02-15T21:10:25.725Z,8.00
2019-02-15T21:12:54.033Z,7.90
2019-02-15T21:15:24.159Z,7.90
2019-02-15T21:17:52.450Z,7.80
2019-02-15T21:20:20.801Z,7.70
2019-02-15T21:22:49.118Z,7.60
2019-02-15T21:25:17.785Z,7.60
2019-02-15T21:27:47.120Z,7.60
2019-02-15T21:30:21.210Z,7.40
2019-02-15T21:32:49.601Z,7.20
2019-02-15T21:35:17.884Z,7.30
2019-02-15T21:37:46.188Z,7.70
2019-02-15T21:40:17.507Z,7.80
2019-02-15T21:42:45.907Z,8.10
2019-02-15T21:45:14.350Z,8.30
2019-02-15T21:47:42.752Z,8.30
2019-02-15T21:50:17.289Z,8.20
2019-02-15T21:52:44.141Z,8.20
2019-02-15T21:55:14.395Z,8.20
2019-02-15T21:57:42.787Z,8.30
2019-02-15T22:00:13.679Z,8.40
2019-02-15T22:02:42.065Z,8.30
2019-02-15T22:05:10.430Z,8.30
2019-02-15T22:07:38.849Z,8.20
2019-02-15T22:10:09.247Z,8.20
2019-02-15T22:12:42.084Z,8.10
2019-02-15T22:15:14.619Z,8.10
2019-02-15T22:17:43.012Z,8.20
2019-02-15T22:20:13.209Z,8.20
2019-02-15T22:22:46.263Z,8.40
2019-02-15T22:25:14.837Z,8.40
2019-02-15T22:27:43.215Z,8.40
2019-02-15T22:30:20.155Z,8.40
2019-02-15T22:32:48.461Z,8.40
2019-02-15T22:35:16.828Z,8.30
2019-02-15T22:37:45.168Z,8.10
2019-02-15T22:40:27.347Z,8.10
2019-02-15T22:42:56.791Z,8.10
2019-02-15T22:45:25.107Z,8.10
2019-02-15T22:47:53.413Z,8.10
2019-02-15T22:50:21.723Z,8.30
2019-02-15T22:52:50.031Z,8.20
2019-02-15T22:55:18.314Z,8.20
2019-02-15T22:57:46.619Z,8.10
2019-02-15T23:00:20.815Z,8.20
2019-02-15T23:02:49.216Z,8.30
2019-02-15T23:05:17.499Z,8.20
2019-02-15T23:07:45.854Z,8.20
2019-02-15T23:10:14.321Z,8.10
2019-02-15T23:12:42.704Z,8.10
2019-02-15T23:15:11.020Z,8.10
2019-02-15T23:17:39.371Z,8.00
2019-02-15T23:20:07.860Z,8.00
2019-02-15T23:22:36.166Z,7.80
2019-02-15T23:25:05.835Z,7.80
2019-02-15T23:27:34.122Z,7.80
2019-02-15T23:30:02.401Z,7.70
2019-02-15T23:32:30.718Z,7.70
2019-02-15T23:34:59.111Z,7.60
2019-02-15T23:37:27.517Z,7.50
2019-02-15T23:39:55.797Z,7.50
2019-02-15T23:42:24.083Z,7.70
2019-02-15T23:44:52.408Z,7.80
2019-02-15T23:47:20.797Z,7.80
2019-02-15T23:49:49.097Z,7.80
2019-02-15T23:52:17.426Z,7.70
2019-02-15T23:54:46.340Z,7.70
2019-02-15T23:57:14.750Z,7.70
2019-02-15T23:59:43.219Z,7.70
